Time;durP1;ratioP1;P1;durP2;ratioP2;P2;SDS_P1;SDS_P2;PMS_P1;PMS_P2;Temp;Humidity;BMP_temperature;BMP_pressure;BME280_temperature;BME280_humidity;BME280_pressure;Samples;Min_cycle;Max_cycle;Signal;HPM_P1;HPM_P2
2022/05/06 00:00:19;;;;;;;45.35;27.45;;;11.90;99.90;;;;;;5008477;28;20041;-67
2022/05/06 00:02:45;;;;;;;48.67;27.67;;;11.90;99.90;;;;;;5009733;28;20042;-67
2022/05/06 00:05:13;;;;;;;43.80;27.20;;;11.80;99.90;;;;;;4993456;28;20427;-67
2022/05/06 00:07:39;;;;;;;53.88;29.48;;;11.80;99.90;;;;;;5011346;28;20042;-67
2022/05/06 00:10:06;;;;;;;49.75;28.77;;;11.80;99.90;;;;;;5011373;28;20092;-68
2022/05/06 00:12:32;;;;;;;45.58;28.65;;;11.80;99.90;;;;;;5009397;28;20052;-67
2022/05/06 00:14:59;;;;;;;49.33;28.67;;;11.90;99.90;;;;;;5010001;28;20114;-67
2022/05/06 00:17:25;;;;;;;51.30;30.15;;;11.70;99.90;;;;;;5007717;28;20398;-67
2022/05/06 00:19:51;;;;;;;47.30;30.50;;;11.70;99.90;;;;;;5008844;28;20384;-67
2022/05/06 00:22:17;;;;;;;53.58;31.23;;;11.60;99.90;;;;;;5009023;28;20163;-67
2022/05/06 00:24:43;;;;;;;55.50;32.47;;;11.60;99.90;;;;;;5007766;28;20038;-67
2022/05/06 00:27:09;;;;;;;54.92;30.95;;;11.60;99.90;;;;;;5008408;28;20042;-67
2022/05/06 00:29:35;;;;;;;57.90;31.35;;;11.60;99.90;;;;;;5004428;28;20045;-67
2022/05/06 00:32:02;;;;;;;50.58;30.85;;;11.60;99.90;;;;;;5009050;28;20038;-67
2022/05/06 00:34:28;;;;;;;46.00;27.45;;;11.50;99.90;;;;;;5008270;28;20056;-67
2022/05/06 00:36:55;;;;;;;49.03;29.40;;;11.60;99.90;;;;;;5008896;28;20049;-67
2022/05/06 00:39:21;;;;;;;44.25;26.85;;;11.40;99.90;;;;;;5008297;28;20061;-66
2022/05/06 00:41:47;;;;;;;49.30;29.33;;;12.10;99.90;;;;;;5008759;28;20054;-67
2022/05/06 00:44:12;;;;;;;51.90;29.90;;;11.40;99.90;;;;;;5007634;28;20057;-67
2022/05/06 00:46:38;;;;;;;43.97;28.63;;;11.40;99.90;;;;;;5008511;28;20038;-67
2022/05/06 00:49:12;;;;;;;45.80;28.30;;;11.30;99.90;;;;;;5008717;28;20116;-67
2022/05/06 00:51:38;;;;;;;47.83;29.13;;;11.30;99.90;;;;;;4990747;28;20053;-66
2022/05/06 00:54:04;;;;;;;44.33;27.67;;;11.30;99.90;;;;;;5008416;28;20045;-66
2022/05/06 00:56:30;;;;;;;49.03;27.90;;;11.20;99.90;;;;;;5008702;28;20479;-66
2022/05/06 00:58:55;;;;;;;48.72;28.77;;;11.60;99.90;;;;;;4989899;28;20128;-66
2022/05/06 01:01:21;;;;;;;43.90;27.63;;;11.20;99.90;;;;;;5003240;28;20240;-67
2022/05/06 01:03:47;;;;;;;47.90;29.00;;;11.20;99.90;;;;;;5011269;28;20050;-66
2022/05/06 01:06:15;;;;;;;47.53;27.20;;;11.20;99.90;;;;;;5008798;28;20081;-67
2022/05/06 01:08:42;;;;;;;47.17;28.42;;;11.20;99.90;;;;;;5008104;28;20050;-67
2022/05/06 01:11:10;;;;;;;46.83;29.15;;;11.10;99.90;;;;;;4976734;28;20375;-66
2022/05/06 01:13:44;;;;;;;53.67;30.73;;;11.10;99.90;;;;;;5009567;28;20060;-67
2022/05/06 01:16:13;;;;;;;50.13;29.30;;;11.10;99.90;;;;;;5008292;28;20053;-66
2022/05/06 01:18:39;;;;;;;46.97;29.45;;;11.00;99.90;;;;;;4990938;28;20041;-67
2022/05/06 01:21:06;;;;;;;48.05;29.33;;;11.00;99.90;;;;;;5007742;28;20038;-66
2022/05/06 01:23:33;;;;;;;43.00;26.98;;;11.00;99.90;;;;;;4991799;28;20478;-66
2022/05/06 01:25:58;;;;;;;43.92;26.55;;;11.00;99.90;;;;;;5007444;28;20096;-67
2022/05/06 01:28:26;;;;;;;43.75;26.20;;;11.00;99.90;;;;;;5006987;28;20482;-66
2022/05/06 01:30:59;;;;;;;39.92;25.15;;;11.00;99.90;;;;;;5008463;28;20168;-66
2022/05/06 01:33:26;;;;;;;44.95;26.55;;;11.00;99.90;;;;;;4990886;28;20061;-67
2022/05/06 01:35:56;;;;;;;45.08;26.80;;;11.00;99.90;;;;;;5010746;28;20046;-66
2022/05/06 01:38:42;;;;;;;43.55;25.45;;;11.00;99.90;;;;;;4992250;28;20054;-67
2022/05/06 01:41:15;;;;;;;43.15;25.25;;;10.90;99.90;;;;;;4989716;28;20399;-66
2022/05/06 01:43:55;;;;;;;42.00;24.83;;;10.90;99.90;;;;;;4980849;28;20398;-67
2022/05/06 01:46:25;;;;;;;43.90;25.90;;;11.20;99.90;;;;;;5010842;28;20058;-66
2022/05/06 01:48:51;;;;;;;37.78;24.40;;;10.80;99.90;;;;;;5010425;28;20509;-66
2022/05/06 01:51:19;;;;;;;40.63;25.42;;;10.90;99.90;;;;;;5011762;28;20145;-67
2022/05/06 01:53:45;;;;;;;47.55;28.33;;;10.90;99.90;;;;;;5013195;28;20046;-67
2022/05/06 01:56:11;;;;;;;55.10;31.45;;;10.80;99.90;;;;;;5013364;28;20481;-67
2022/05/06 01:58:37;;;;;;;58.10;33.28;;;11.40;99.90;;;;;;5012080;28;20410;-67
2022/05/06 02:01:03;;;;;;;52.03;31.88;;;10.80;99.90;;;;;;4978725;28;20041;-66
2022/05/06 02:06:13;;;;;;;59.58;33.90;;;10.70;99.90;;;;;;5011098;28;20398;-67
2022/05/06 02:08:39;;;;;;;60.15;34.47;;;10.70;99.90;;;;;;5012557;28;20057;-67
2022/05/06 02:11:06;;;;;;;59.00;35.22;;;10.70;99.90;;;;;;5011596;28;20121;-67
2022/05/06 02:13:33;;;;;;;62.35;33.80;;;10.60;99.90;;;;;;5010925;28;20053;-67
2022/05/06 02:15:59;;;;;;;50.35;31.40;;;10.60;99.90;;;;;;5010767;28;20042;-67
2022/05/06 02:18:26;;;;;;;56.15;31.73;;;10.50;99.90;;;;;;5011252;28;20068;-66
2022/05/06 02:20:55;;;;;;;52.10;30.60;;;10.50;99.90;;;;;;5013348;28;20472;-66
2022/05/06 02:23:20;;;;;;;56.25;33.00;;;10.40;99.90;;;;;;5009333;28;20046;-67
2022/05/06 02:25:47;;;;;;;55.53;33.00;;;10.40;99.90;;;;;;5011053;28;20049;-66
2022/05/06 02:28:14;;;;;;;63.25;35.80;;;10.40;99.90;;;;;;5008539;28;20095;-66
2022/05/06 02:33:27;;;;;;;61.90;35.13;;;10.90;99.90;;;;;;5010631;28;20041;-66
2022/05/06 02:35:53;;;;;;;62.15;35.00;;;10.40;99.90;;;;;;5011189;28;20046;-66
2022/05/06 02:38:21;;;;;;;64.60;36.03;;;10.40;99.90;;;;;;5012124;28;20149;-66
2022/05/06 02:40:48;;;;;;;62.50;34.70;;;11.20;99.90;;;;;;5013235;28;20462;-66
2022/05/06 02:43:13;;;;;;;57.33;33.50;;;10.30;99.90;;;;;;4992275;28;20045;-67
2022/05/06 02:45:39;;;;;;;54.90;32.30;;;10.30;99.90;;;;;;5010625;28;20049;-66
2022/05/06 02:48:06;;;;;;;56.30;33.10;;;10.30;99.90;;;;;;5012686;28;20372;-66
2022/05/06 02:50:31;;;;;;;59.47;34.22;;;10.30;99.90;;;;;;4978561;28;20408;-67
2022/05/06 02:52:57;;;;;;;65.18;35.33;;;10.20;99.90;;;;;;5012689;28;20045;-66
2022/05/06 02:55:23;;;;;;;59.40;34.35;;;10.20;99.90;;;;;;5009714;28;20054;-67
2022/05/06 02:57:51;;;;;;;59.67;35.30;;;10.20;99.90;;;;;;4991026;28;20050;-67
2022/05/06 03:00:17;;;;;;;57.05;33.72;;;10.70;99.90;;;;;;5010434;28;20050;-66
2022/05/06 03:02:42;;;;;;;59.65;34.17;;;10.20;99.90;;;;;;5010698;28;20052;-67
2022/05/06 03:05:09;;;;;;;57.63;33.00;;;10.20;99.90;;;;;;5009929;28;20135;-67
2022/05/06 03:07:35;;;;;;;57.38;33.13;;;10.20;99.90;;;;;;4992971;28;20046;-67
2022/05/06 03:10:02;;;;;;;54.75;32.55;;;10.20;99.90;;;;;;5010408;28;20080;-66
2022/05/06 03:12:29;;;;;;;57.83;31.55;;;10.20;99.90;;;;;;5009830;28;20042;-67
2022/05/06 03:14:55;;;;;;;56.25;31.65;;;10.90;99.90;;;;;;4993020;28;20099;-67
2022/05/06 03:17:21;;;;;;;58.67;31.60;;;10.80;99.90;;;;;;5011142;28;20038;-66
2022/05/06 03:19:46;;;;;;;77.63;31.33;;;10.20;99.90;;;;;;4988162;28;20540;-67
2022/05/06 03:22:15;;;;;;;83.90;33.33;;;10.20;99.90;;;;;;5010675;28;20085;-66
2022/05/06 03:24:42;;;;;;;342.15;38.65;;;10.30;99.90;;;;;;4992560;28;20041;-66
2022/05/06 03:27:59;;;;;;;80.63;34.80;;;10.20;99.90;;;;;;5009236;28;20504;-66
2022/05/06 03:29:53;;;;;;;207.25;39.08;;;10.20;99.90;;;;;;5010336;28;20052;-66
2022/05/06 03:32:19;;;;;;;475.48;47.13;;;10.20;99.90;;;;;;4992035;28;20038;-66
2022/05/06 03:34:44;;;;;;;273.48;42.03;;;10.20;99.90;;;;;;5009324;28;20057;-66
2022/05/06 03:37:10;;;;;;;632.75;50.50;;;10.20;99.90;;;;;;5010562;28;20053;-66
2022/05/06 03:39:36;;;;;;;608.70;50.78;;;10.30;99.90;;;;;;5007838;28;20415;-66
2022/05/06 03:42:01;;;;;;;385.40;45.83;;;10.30;99.90;;;;;;4992447;28;20506;-66
2022/05/06 03:44:27;;;;;;;629.88;51.75;;;10.20;99.90;;;;;;4991871;28;20041;-68
2022/05/06 03:46:53;;;;;;;551.33;48.58;;;10.20;99.90;;;;;;4975662;28;20064;-66
2022/05/06 03:49:18;;;;;;;444.17;47.47;;;10.30;99.90;;;;;;4991963;28;20112;-67
2022/05/06 03:51:45;;;;;;;808.05;57.85;;;10.60;99.90;;;;;;5009738;28;20187;-67
2022/05/06 03:54:11;;;;;;;706.50;54.03;;;10.30;99.90;;;;;;5008470;28;20061;-67
2022/05/06 03:56:36;;;;;;;342.33;48.60;;;11.10;99.90;;;;;;5009705;28;20096;-67
2022/05/06 03:59:02;;;;;;;514.50;46.65;;;10.20;99.90;;;;;;5009321;28;20041;-67
2022/05/06 04:01:28;;;;;;;488.05;49.35;;;10.30;99.90;;;;;;5009530;28;20042;-67
2022/05/06 04:03:54;;;;;;;388.63;44.75;;;11.50;99.90;;;;;;5009294;28;20514;-66
2022/05/06 04:06:20;;;;;;;621.53;55.10;;;10.20;99.90;;;;;;5008899;28;20077;-66
2022/05/06 04:08:46;;;;;;;563.28;52.60;;;10.20;99.90;;;;;;5015348;28;20415;-66
2022/05/06 04:11:13;;;;;;;454.55;43.72;;;10.20;99.90;;;;;;5008606;28;20054;-67
2022/05/06 04:13:38;;;;;;;491.85;48.28;;;10.20;99.90;;;;;;5009466;28;20446;-67
2022/05/06 04:16:05;;;;;;;376.77;42.53;;;10.10;99.90;;;;;;5008559;28;20045;-67
2022/05/06 04:18:31;;;;;;;410.70;43.13;;;10.10;99.90;;;;;;4990976;28;20057;-67
2022/05/06 04:23:40;;;;;;;450.40;41.78;;;10.00;99.90;;;;;;4991291;28;20062;-67
2022/05/06 04:26:08;;;;;;;283.58;34.47;;;10.40;99.90;;;;;;5009798;28;20133;-66
2022/05/06 04:28:35;;;;;;;155.00;34.05;;;9.90;99.90;;;;;;5008866;28;20046;-66
2022/05/06 04:31:01;;;;;;;304.67;39.60;;;9.90;99.90;;;;;;5009095;28;20394;-66
2022/05/06 04:33:28;;;;;;;190.10;34.60;;;9.80;99.90;;;;;;5010608;28;20037;-66
2022/05/06 04:35:56;;;;;;;215.20;37.63;;;9.80;99.90;;;;;;5007607;28;20038;-66
2022/05/06 04:38:26;;;;;;;288.35;34.65;;;9.80;99.90;;;;;;4991504;28;20115;-66
2022/05/06 04:40:54;;;;;;;119.35;29.00;;;9.80;99.90;;;;;;4988576;28;20049;-66
2022/05/06 04:43:20;;;;;;;317.25;37.22;;;9.70;99.90;;;;;;5007738;28;20131;-67
2022/05/06 04:45:47;;;;;;;126.72;29.83;;;10.50;99.90;;;;;;5011193;28;20054;-67
2022/05/06 04:48:13;;;;;;;197.98;31.38;;;9.60;99.90;;;;;;5008005;28;20041;-67
2022/05/06 04:50:40;;;;;;;80.72;28.48;;;9.60;99.90;;;;;;5007008;28;20051;-67
2022/05/06 04:53:07;;;;;;;105.40;28.25;;;10.00;99.90;;;;;;5000527;28;20050;-66
2022/05/06 04:55:47;;;;;;;86.47;24.60;;;9.70;99.90;;;;;;5004791;28;20049;-67
2022/05/06 04:58:14;;;;;;;72.50;25.52;;;9.80;99.90;;;;;;5007302;28;20052;-67
2022/05/06 05:00:40;;;;;;;146.75;27.35;;;9.80;99.90;;;;;;5008437;28;20077;-67
2022/05/06 05:03:06;;;;;;;103.47;25.52;;;9.90;99.90;;;;;;5008758;28;20046;-67
2022/05/06 05:05:32;;;;;;;70.80;24.85;;;9.90;99.90;;;;;;4989637;28;20084;-67
2022/05/06 05:07:57;;;;;;;138.45;25.83;;;9.90;99.90;;;;;;4990828;28;20025;-67
2022/05/06 05:10:23;;;;;;;157.88;27.17;;;10.00;99.90;;;;;;5007917;28;20046;-67
2022/05/06 05:12:50;;;;;;;180.27;25.10;;;10.50;99.90;;;;;;5006689;28;20038;-66
2022/05/06 05:15:16;;;;;;;90.90;25.70;;;10.10;99.90;;;;;;4990675;28;20081;-66
2022/05/06 05:17:46;;;;;;;213.23;28.85;;;10.20;99.90;;;;;;5008419;28;20053;-66
2022/05/06 05:20:13;;;;;;;114.72;26.73;;;10.10;99.90;;;;;;4989101;28;20402;-66
2022/05/06 05:22:38;;;;;;;96.88;28.23;;;10.10;99.90;;;;;;5006900;28;20045;-67
2022/05/06 05:25:05;;;;;;;204.77;29.23;;;10.10;99.90;;;;;;4990121;28;20038;-66
2022/05/06 05:27:32;;;;;;;142.88;29.25;;;10.20;99.90;;;;;;5026376;28;20392;-67
2022/05/06 05:29:58;;;;;;;170.45;30.00;;;10.20;99.90;;;;;;5022625;28;20041;-67
2022/05/06 05:32:24;;;;;;;119.97;29.60;;;10.30;99.90;;;;;;5009554;28;20089;-67
2022/05/06 05:34:50;;;;;;;165.80;33.88;;;10.30;99.90;;;;;;5012563;28;20378;-67
2022/05/06 05:37:16;;;;;;;204.38;32.10;;;11.30;99.90;;;;;;5027563;28;20131;-67
2022/05/06 05:39:41;;;;;;;149.90;32.75;;;10.50;99.90;;;;;;5018872;28;20050;-67
2022/05/06 05:42:08;;;;;;;66.93;29.98;;;10.50;99.90;;;;;;5013242;28;20045;-67
2022/05/06 05:50:06;;;;;;;79.60;29.45;;;10.40;99.90;;;;;;5010414;28;20133;-67
2022/05/06 05:52:32;;;;;;;76.28;31.80;;;10.50;99.90;;;;;;4991022;28;20054;-66
2022/05/06 05:54:58;;;;;;;85.25;29.98;;;10.50;99.90;;;;;;5007414;28;20521;-66
2022/05/06 05:57:24;;;;;;;67.47;30.00;;;10.50;99.90;;;;;;5006939;28;20069;-67
2022/05/06 05:59:49;;;;;;;76.78;31.88;;;10.50;99.90;;;;;;4990674;28;20045;-67
2022/05/06 06:02:17;;;;;;;59.78;30.45;;;10.60;99.90;;;;;;4988893;28;20056;-67
2022/05/06 06:04:43;;;;;;;73.22;30.88;;;10.70;99.90;;;;;;5007831;28;20038;-67
2022/05/06 06:07:09;;;;;;;94.57;27.67;;;10.80;99.90;;;;;;5007764;28;20096;-67
2022/05/06 06:09:34;;;;;;;95.28;31.98;;;10.90;99.90;;;;;;4988738;28;20515;-67
2022/05/06 06:12:00;;;;;;;72.05;30.52;;;10.90;99.90;;;;;;4973949;28;20494;-67
2022/05/06 06:14:26;;;;;;;83.25;28.45;;;10.90;99.90;;;;;;4997551;28;20119;-67
2022/05/06 06:16:51;;;;;;;59.83;30.77;;;11.00;99.90;;;;;;5008516;28;20077;-67
2022/05/06 06:19:17;;;;;;;81.95;28.70;;;11.00;99.90;;;;;;4990294;28;20064;-67
2022/05/06 06:21:43;;;;;;;79.55;28.35;;;10.90;99.90;;;;;;4989077;28;20387;-67
2022/05/06 06:24:10;;;;;;;120.03;26.90;;;11.00;99.90;;;;;;5007502;28;20379;-67
2022/05/06 06:26:36;;;;;;;120.72;30.88;;;11.00;99.90;;;;;;5019395;28;20045;-67
2022/05/06 06:29:02;;;;;;;81.47;30.25;;;10.90;99.90;;;;;;5026632;28;20045;-68
2022/05/06 06:31:31;;;;;;;77.60;28.42;;;11.00;99.90;;;;;;5010383;28;20049;-66
2022/05/06 06:33:57;;;;;;;64.43;29.98;;;11.10;99.90;;;;;;5011077;28;20056;-67
2022/05/06 06:36:24;;;;;;;55.35;29.40;;;11.20;99.90;;;;;;5010696;28;20034;-66
2022/05/06 06:38:49;;;;;;;53.85;28.65;;;11.50;99.90;;;;;;5011439;28;20104;-67
2022/05/06 06:41:15;;;;;;;61.70;26.58;;;11.60;99.90;;;;;;5025670;28;21025;-67
2022/05/06 06:43:41;;;;;;;47.17;25.98;;;11.70;99.90;;;;;;5009546;28;20090;-67
2022/05/06 06:46:07;;;;;;;53.33;28.27;;;12.00;99.90;;;;;;4993434;28;20049;-67
2022/05/06 06:48:33;;;;;;;49.40;27.50;;;11.70;99.90;;;;;;5011073;28;20058;-68
2022/05/06 06:50:58;;;;;;;53.63;28.55;;;11.70;99.90;;;;;;5009758;28;20489;-67
2022/05/06 06:53:24;;;;;;;54.05;27.67;;;11.80;99.90;;;;;;4975125;28;20065;-67
2022/05/06 06:55:50;;;;;;;47.22;26.55;;;11.70;99.90;;;;;;5010539;28;20394;-67
2022/05/06 06:58:16;;;;;;;43.47;27.45;;;12.10;99.90;;;;;;5011251;28;20056;-68
2022/05/06 07:00:42;;;;;;;43.40;26.00;;;11.80;99.90;;;;;;5011329;28;20057;-67
2022/05/06 07:03:09;;;;;;;43.63;26.10;;;13.10;99.90;;;;;;4992573;28;20061;-67
2022/05/06 07:05:34;;;;;;;40.63;24.75;;;12.10;99.90;;;;;;4992210;28;20052;-67
2022/05/06 07:13:48;;;;;;;42.95;24.73;;;12.40;99.90;;;;;;4937555;29;20524;-67
2022/05/06 07:16:14;;;;;;;45.00;26.13;;;11.80;99.90;;;;;;4949113;29;20090;-67
2022/05/06 07:18:39;;;;;;;44.67;26.40;;;12.50;99.90;;;;;;4968219;28;20062;-67
2022/05/06 07:21:05;;;;;;;39.03;23.48;;;12.50;99.90;;;;;;4998063;28;20034;-68
2022/05/06 07:23:30;;;;;;;37.00;21.90;;;12.60;99.90;;;;;;5007586;28;20482;-67
2022/05/06 07:25:56;;;;;;;36.92;22.40;;;12.70;99.90;;;;;;4992581;28;20038;-67
2022/05/06 07:28:22;;;;;;;31.90;20.52;;;12.80;99.90;;;;;;5008769;28;20073;-68
2022/05/06 07:30:47;;;;;;;30.98;19.33;;;12.90;99.90;;;;;;4991952;28;20046;-68
2022/05/06 07:33:13;;;;;;;27.13;17.92;;;13.10;99.90;;;;;;4991524;28;20042;-68
2022/05/06 07:35:38;;;;;;;28.20;18.48;;;13.30;99.90;;;;;;4994018;28;20046;-67
2022/05/06 07:38:04;;;;;;;30.48;18.35;;;13.20;99.90;;;;;;4993674;28;20053;-67
2022/05/06 07:40:30;;;;;;;28.45;18.23;;;13.20;99.90;;;;;;4995247;28;20051;-66
2022/05/06 07:42:55;;;;;;;27.38;18.13;;;13.20;99.90;;;;;;5002744;28;20046;-67
2022/05/06 07:45:21;;;;;;;29.55;17.80;;;13.30;99.90;;;;;;5008194;28;20049;-67
2022/05/06 07:47:46;;;;;;;28.40;17.23;;;13.40;99.90;;;;;;5009985;28;20494;-67
2022/05/06 07:50:12;;;;;;;25.00;16.15;;;13.50;99.90;;;;;;5008324;28;20048;-67
2022/05/06 07:52:37;;;;;;;21.63;13.90;;;13.60;99.90;;;;;;5008418;28;20137;-67
2022/05/06 07:55:04;;;;;;;25.35;15.15;;;14.00;99.90;;;;;;5009587;28;20858;-67
2022/05/06 07:57:30;;;;;;;22.95;15.05;;;13.90;99.90;;;;;;4993714;28;20128;-67
2022/05/06 07:59:55;;;;;;;23.38;14.65;;;14.00;99.90;;;;;;5010243;28;20206;-67
2022/05/06 08:05:05;;;;;;;20.15;13.77;;;14.20;99.90;;;;;;4990028;28;20057;-67
2022/05/06 08:07:31;;;;;;;21.92;14.20;;;14.50;99.90;;;;;;5008254;28;20042;-67
2022/05/06 08:09:56;;;;;;;20.63;14.27;;;14.60;99.90;;;;;;5011766;28;20108;-68
2022/05/06 08:12:22;;;;;;;19.52;13.65;;;14.80;99.90;;;;;;5008980;28;20493;-67
2022/05/06 08:14:47;;;;;;;18.00;12.57;;;14.90;99.90;;;;;;5009125;28;20052;-67
2022/05/06 08:17:13;;;;;;;18.83;12.90;;;15.00;99.90;;;;;;5008603;28;20631;-68
2022/05/06 08:19:38;;;;;;;19.30;12.50;;;15.20;99.90;;;;;;5008315;28;20042;-68
2022/05/06 08:22:05;;;;;;;17.17;12.32;;;15.30;99.90;;;;;;5009138;28;20046;-67
2022/05/06 08:24:30;;;;;;;17.02;11.57;;;15.80;99.90;;;;;;5010660;28;20034;-68
2022/05/06 08:26:56;;;;;;;16.13;11.18;;;15.60;99.90;;;;;;4992976;28;20124;-69
2022/05/06 08:29:22;;;;;;;14.95;11.25;;;15.60;99.90;;;;;;4997380;28;20125;-67
2022/05/06 08:31:48;;;;;;;14.80;10.85;;;15.60;99.90;;;;;;5009881;28;20418;-67
2022/05/06 08:34:14;;;;;;;14.05;10.00;;;15.70;99.90;;;;;;5025732;28;20116;-68
2022/05/06 08:36:43;;;;;;;13.43;10.43;;;15.80;99.90;;;;;;5008201;28;20056;-67
2022/05/06 08:39:10;;;;;;;12.68;10.15;;;15.90;99.90;;;;;;5010576;28;20061;-67
2022/05/06 08:41:36;;;;;;;13.25;9.52;;;16.20;99.90;;;;;;5020431;28;20052;-67
2022/05/06 08:52:40;;;;;;;9.80;8.23;;;17.30;99.90;;;;;;4990789;28;20054;-67
2022/05/06 08:55:06;;;;;;;11.77;8.73;;;17.00;99.90;;;;;;4983238;28;20121;-68
2022/05/06 08:57:32;;;;;;;9.75;7.20;;;17.30;99.90;;;;;;4986484;28;20064;-67
2022/05/06 08:59:58;;;;;;;7.28;5.95;;;17.60;99.90;;;;;;5003917;28;20041;-68
2022/05/06 09:02:23;;;;;;;8.18;5.88;;;18.20;99.90;;;;;;4986160;28;20139;-67
2022/05/06 09:04:50;;;;;;;8.55;7.15;;;18.00;99.90;;;;;;4987030;28;20065;-67
2022/05/06 09:07:21;;;;;;;9.13;7.07;;;18.30;99.90;;;;;;4979822;28;20142;-68
2022/05/06 09:10:15;;;;;;;10.05;8.20;;;18.50;99.90;;;;;;5002533;28;20080;-68
2022/05/06 09:12:46;;;;;;;10.15;8.10;;;18.70;99.90;;;;;;4990825;28;20067;-67
2022/05/06 09:18:02;;;;;;;8.32;6.63;;;19.20;99.90;;;;;;5004924;28;20056;-68
2022/05/06 09:20:28;;;;;;;7.55;6.10;;;19.40;99.90;;;;;;5002317;28;20113;-67
2022/05/06 09:22:55;;;;;;;6.60;5.57;;;19.40;99.90;;;;;;4986370;28;20133;-67
2022/05/06 09:25:40;;;;;;;8.75;5.20;;;19.50;99.90;;;;;;5003425;28;20042;-67
2022/05/06 09:28:09;;;;;;;8.25;5.20;;;19.60;99.90;;;;;;5007504;28;20116;-67
2022/05/06 09:30:36;;;;;;;7.03;5.00;;;19.50;99.90;;;;;;5008319;28;20073;-67
2022/05/06 09:33:02;;;;;;;6.95;5.15;;;19.40;99.90;;;;;;5006633;28;20439;-67
2022/05/06 09:35:31;;;;;;;6.10;5.07;;;19.10;99.90;;;;;;5009777;28;20109;-67
2022/05/06 09:37:57;;;;;;;7.95;5.53;;;19.00;99.90;;;;;;5006846;28;20069;-67
2022/05/06 09:40:30;;;;;;;6.55;5.70;;;19.00;99.90;;;;;;4990738;28;20145;-67
2022/05/06 09:42:59;;;;;;;8.30;5.90;;;19.00;99.90;;;;;;5006889;28;20188;-67
2022/05/06 09:45:39;;;;;;;8.23;5.65;;;19.40;99.90;;;;;;4989495;28;20050;-67
2022/05/06 09:48:08;;;;;;;7.68;5.85;;;19.70;99.90;;;;;;5009801;28;20046;-67
2022/05/06 09:50:36;;;;;;;7.03;5.75;;;20.30;99.90;;;;;;5009053;28;20042;-67
2022/05/06 09:53:22;;;;;;;7.25;5.45;;;20.70;99.90;;;;;;4989954;28;20057;-67
2022/05/06 09:55:48;;;;;;;7.88;5.20;;;21.20;99.90;;;;;;5006486;28;20514;-68
2022/05/06 09:58:15;;;;;;;7.78;5.70;;;21.60;99.90;;;;;;4985982;28;20053;-66
2022/05/06 10:00:41;;;;;;;7.28;5.82;;;21.70;99.90;;;;;;4973017;28;20162;-66
2022/05/06 10:03:09;;;;;;;7.15;5.60;;;21.70;99.90;;;;;;4953729;28;20156;-66
2022/05/06 10:05:36;;;;;;;7.40;5.40;;;21.90;99.90;;;;;;4988559;28;20050;-67
2022/05/06 10:08:18;;;;;;;7.05;5.50;;;22.40;99.90;;;;;;4991407;28;20054;-67
2022/05/06 10:11:12;;;;;;;8.27;5.55;;;23.00;99.90;;;;;;4993404;28;20050;-67
2022/05/06 10:13:43;;;;;;;6.30;5.18;;;23.30;99.90;;;;;;4973165;28;20125;-67
2022/05/06 10:16:10;;;;;;;6.03;5.30;;;23.60;99.90;;;;;;4990986;28;20133;-67
2022/05/06 10:18:38;;;;;;;7.57;5.53;;;24.10;99.20;;;;;;4991642;28;20050;-67
2022/05/06 10:21:08;;;;;;;6.88;5.40;;;24.80;97.90;;;;;;4990976;28;20034;-67
2022/05/06 10:23:54;;;;;;;5.18;4.50;;;25.40;96.70;;;;;;4991034;28;20459;-67
2022/05/06 10:26:40;;;;;;;5.93;4.30;;;25.50;95.50;;;;;;4990187;28;20038;-67
2022/05/06 10:35:08;;;;;;;4.82;3.88;;;29.30;86.80;;;;;;5001473;28;20053;-70
2022/05/06 10:37:45;;;;;;;5.53;3.80;;;29.70;86.00;;;;;;4994564;28;20058;-70
2022/05/06 10:40:28;;;;;;;5.90;3.47;;;30.20;84.30;;;;;;5009467;28;20034;-70
2022/05/06 10:42:54;;;;;;;4.75;3.70;;;30.00;81.60;;;;;;4976559;28;20092;-70
2022/05/06 10:45:25;;;;;;;4.45;3.60;;;29.70;79.30;;;;;;5010597;28;20041;-70
2022/05/06 10:47:51;;;;;;;5.10;3.60;;;29.50;81.00;;;;;;4987523;28;20135;-70
2022/05/06 10:50:23;;;;;;;4.30;3.45;;;29.40;81.50;;;;;;5006836;28;20462;-70
2022/05/06 10:52:49;;;;;;;5.97;3.65;;;29.80;81.00;;;;;;5006889;28;20057;-70
2022/05/06 10:55:17;;;;;;;4.07;3.00;;;30.20;78.50;;;;;;5006366;28;20042;-70
2022/05/06 10:57:53;;;;;;;4.38;2.75;;;30.40;76.10;;;;;;4988398;28;20046;-70
2022/05/06 11:00:21;;;;;;;2.88;2.20;;;30.90;75.40;;;;;;4989338;28;20406;-70
2022/05/06 11:02:47;;;;;;;4.82;2.42;;;31.90;73.50;;;;;;5006870;28;20439;-70
2022/05/06 11:05:17;;;;;;;4.25;2.85;;;32.80;71.60;;;;;;5006550;28;20042;-70
2022/05/06 11:07:44;;;;;;;4.70;2.60;;;34.50;69.80;;;;;;4989377;28;20130;-70
2022/05/06 11:10:25;;;;;;;2.90;2.30;;;36.20;65.50;;;;;;4972394;28;20046;-70
2022/05/06 11:12:58;;;;;;;3.70;2.55;;;38.20;60.90;;;;;;4988429;28;20353;-70
2022/05/06 11:15:32;;;;;;;3.58;2.40;;;39.50;56.70;;;;;;5005975;28;20482;-70
2022/05/06 11:18:01;;;;;;;2.95;2.20;;;40.30;53.80;;;;;;4983672;28;20450;-69
2022/05/06 11:20:33;;;;;;;3.45;2.67;;;40.90;52.00;;;;;;4987932;28;20038;-69
2022/05/06 11:23:08;;;;;;;4.40;2.30;;;41.00;49.10;;;;;;4968658;28;20125;-69
2022/05/06 11:25:35;;;;;;;5.10;2.13;;;40.20;48.80;;;;;;4969679;28;20517;-69
2022/05/06 11:28:03;;;;;;;2.88;1.85;;;38.40;48.30;;;;;;4970701;28;20051;-69
2022/05/06 11:30:30;;;;;;;4.32;2.60;;;36.90;48.30;;;;;;4987906;28;20545;-69
2022/05/06 11:32:58;;;;;;;3.38;2.25;;;35.40;49.60;;;;;;4999254;28;20045;-69
2022/05/06 11:35:26;;;;;;;3.90;2.50;;;34.50;50.60;;;;;;5007794;28;20406;-70
2022/05/06 11:37:52;;;;;;;3.70;2.72;;;33.50;51.80;;;;;;4991363;28;20483;-69
2022/05/06 11:42:58;;;;;;;5.90;2.42;;;31.30;54.80;;;;;;5008851;28;20487;-68
2022/05/06 11:48:13;;;;;;;5.17;2.53;;;30.60;57.60;;;;;;4991458;28;20069;-69
2022/05/06 11:50:40;;;;;;;4.43;2.40;;;32.40;56.20;;;;;;5008850;28;20494;-68
2022/05/06 11:53:08;;;;;;;2.95;2.20;;;33.70;55.00;;;;;;5008424;28;20049;-68
2022/05/06 11:55:40;;;;;;;3.45;2.00;;;35.10;53.90;;;;;;5011053;28;20038;-68
2022/05/06 11:58:07;;;;;;;3.95;1.90;;;36.30;53.10;;;;;;4989277;28;20058;-69
2022/05/06 12:00:34;;;;;;;3.72;1.90;;;37.30;51.20;;;;;;5006280;28;20463;-69
2022/05/06 12:03:05;;;;;;;3.22;1.70;;;38.10;50.60;;;;;;5005024;28;20097;-68
2022/05/06 12:05:32;;;;;;;3.47;1.60;;;38.90;49.40;;;;;;4987179;28;20102;-69
2022/05/06 12:07:58;;;;;;;4.10;1.80;;;38.20;48.80;;;;;;5005509;28;20082;-69
2022/05/06 12:10:32;;;;;;;3.10;1.70;;;36.70;49.70;;;;;;4987811;28;20092;-69
2022/05/06 12:13:10;;;;;;;4.45;2.03;;;36.90;49.60;;;;;;4986648;28;20453;-69
2022/05/06 12:15:39;;;;;;;2.40;1.70;;;37.70;50.10;;;;;;5005781;28;20092;-69
2022/05/06 12:18:18;;;;;;;2.90;1.60;;;38.30;49.00;;;;;;5005739;28;20042;-69
2022/05/06 12:20:46;;;;;;;2.60;1.50;;;37.40;49.30;;;;;;5005178;28;20053;-69
2022/05/06 12:23:12;;;;;;;3.00;1.70;;;37.40;49.20;;;;;;4986905;28;20379;-69
2022/05/06 12:25:40;;;;;;;3.55;1.60;;;38.10;48.70;;;;;;5004827;28;20045;-68
2022/05/06 12:28:05;;;;;;;2.25;1.45;;;38.20;48.00;;;;;;5004228;28;20046;-68
2022/05/06 12:30:32;;;;;;;2.55;1.30;;;37.70;47.70;;;;;;5005715;28;20473;-69
2022/05/06 12:33:02;;;;;;;3.35;1.63;;;37.50;47.60;;;;;;5005326;28;20044;-68
2022/05/06 12:35:28;;;;;;;2.65;1.80;;;35.60;48.30;;;;;;5004137;28;20048;-69
2022/05/06 12:37:54;;;;;;;3.25;1.70;;;33.70;49.90;;;;;;5008160;28;20069;-68
2022/05/06 12:40:20;;;;;;;4.00;1.95;;;32.00;51.60;;;;;;4988864;28;20197;-69
2022/05/06 12:43:11;;;;;;;3.70;1.75;;;30.80;52.90;;;;;;4973380;28;20197;-69
2022/05/06 12:45:49;;;;;;;4.57;1.90;;;29.70;53.90;;;;;;4990760;28;20517;-69
2022/05/06 12:51:02;;;;;;;4.55;2.00;;;28.10;56.70;;;;;;4996516;28;20042;-70
2022/05/06 12:53:28;;;;;;;4.50;1.90;;;27.50;57.60;;;;;;5008724;28;20057;-70
2022/05/06 12:55:54;;;;;;;3.97;2.30;;;26.80;58.90;;;;;;4990159;28;20042;-68
2022/05/06 12:58:23;;;;;;;5.15;2.55;;;26.60;59.70;;;;;;5005955;28;20053;-66
2022/05/06 13:00:49;;;;;;;4.03;2.45;;;26.20;60.60;;;;;;4969650;28;20124;-67
2022/05/06 13:03:15;;;;;;;5.70;2.53;;;26.10;61.80;;;;;;5003453;28;20125;-67
2022/05/06 13:05:43;;;;;;;4.18;2.85;;;25.80;62.50;;;;;;5003247;28;20435;-67
2022/05/06 13:08:09;;;;;;;6.45;2.63;;;25.60;63.40;;;;;;4988782;28;20127;-67
2022/05/06 13:10:35;;;;;;;5.50;3.33;;;25.50;64.40;;;;;;4990472;28;20050;-67
2022/05/06 13:13:02;;;;;;;7.13;3.30;;;25.50;65.60;;;;;;5007092;28;20084;-67
2022/05/06 13:15:28;;;;;;;4.63;3.22;;;25.50;67.50;;;;;;5007273;28;20085;-67
2022/05/06 13:17:54;;;;;;;5.93;3.20;;;25.80;70.70;;;;;;5008115;28;20479;-67
2022/05/06 13:20:20;;;;;;;5.10;3.13;;;24.90;72.60;;;;;;5009681;28;20041;-67
2022/05/06 13:22:45;;;;;;;5.60;3.20;;;24.90;76.80;;;;;;5009053;28;20133;-67